Portada
METAR-TAF:

METAR-TAF

Aeroports :

Christchurch, Nova Zelanda

latitud: 43-29S, longitud: 172-33E, altitud: 38 m

Observació

L'informe es va fer fa 30 minuts, a les 01:00 UTC
Vent 14 kt del Est/Nord-Est, variant entre Nord-Est i Est/Sud-Est
Temperatura 16°C
Humitat 45%
Pressió 1023 hPa
Visibilitat 10 km o més

METAR: NZCH 010100Z AUTO 07014KT 050V110 9999 NCD 16/04 Q1023 NOSIG

Hora: 14:30 (01:30 UTC)

Pronòstic

L'informe es va fer fa 2 hores i 30 minuts, a les 23:00 UTC
Pronòstic vàlid del 01 a les 00 UTC al 02 a les 00 UTC
Vent 12 kt del Est/Nord-Est
Visibilitat 10 km o més
sense núvols per sota de 1500 mi sense presència de cumulonimbus.
Evolucionant progressivament
l' 01 a les 08 UTC al 01 a les 10 UTC
Vent 5 kt del Nord-Oest

TAF: NZCH 302300Z 0100/0200 07012KT CAVOK BECMG 0108/0110 32005KT

Observacions i pronòstics meteorològics de més de 4000 aeroports (METAR i TAF).

Les estacions disponibles són els punts grocs i vermells al mapa.

Posi el ratolí al punt desitjat per veure el nom de l'estació.

Feu clic per veure les observacions i els pronòstics meteorològics.

Per canviar el mapa: feu clic els botons verds amb una creu de color negre per apropar; al botó verd amb un guió per allunyar la imatge; o en les fletxes verdes per a mapes adjacents.


METAR-TAF: